Friday, April 29, 2016
10:11 UTC
  |  Log In   |  Register Free
Airport Search:

Farmington Regional Airport
(KFAM)

Farmington Regional Airport Diagram
No Airport Diagram Available

FAA data valid effective Mar 31 2016 - May 26 2016 (unless otherwise noted).

 
 
 
 
 
 
 
 
 
 
 
 
 
 
Current Aviation Weather for KFAM

Weather Summary


The most recent METAR observation for FAM was updated at: 12:55 UTC
METAR for KFAM is not available. Closest METAR is for
KFAM  (most recent observation was updatred at 29:09 UTC)
290956Z AUTO 01003KT 10SM CLR 12/09 A3004 RMK AO2 SLP191 T01170089

TAF for KFAM is not available.
GlobalAir.com is loading additional information.
 Current Weather at FAM
51.0 F° (10.6 C°)

North winds at 3.5 mph
Pressure:
30.06 in
Humidity:
89%
Wind:
North at 3.5 mph
Dew Point:
48.0 F° (8.9 C°)
Visibility:
10.00 mi
FAM NOAA Radar




Find All Airport Services Find A Hotel Find A Rental Car Find A Golf Course Find A Restaurant $100 Hamburger



Airport Weather Forecast for KFAM

Translated METAR for KFAM (0956 UTC)
METAR:
KFAM 290956Z AUTO 01003KT 10SM CLR 12/09 A3004 RMK AO2 SLP191 T01170089
Conditions at:
KFAM (Farmington Rgnl, MO) observed 0956 UTC 29 April 2016
Temperature:
12°C (53.6°F)
Dewpoint:
9°C (48.2°F) [RH = 81.9]
Pressure:
30.04 inches Hg (1017.3 mb)
pressure at sea level is 191 in Hg
Winds:
from the N (010 degrees) at 3.5 mph (3 knots: 1.5 m/s)
Visibility:
10 mile(s)
Ceiling:
at least 12,000 feet AGL
Clouds:
Clear below 12,000 feet AGL
Remarks:
site is un-manned
site is automated and HAS a precipitation sensor

Translated TAF for TAF for FAM is not available. Refer to local area forecast.
FBO's on the Field
FBO Company Facility Photos Services Transportation Aviation Fuel Prices: Prices include tax
Catering Weather Repair Courtesy Rental Type 100LL JetA JetA+ MOGAS 8087
 
Farmington Regional Airport

This FBO has not yet been rated
FS:Shell
Last Updated: Apr-20
Login to update fuel prices
SS:
Contact Farmington Regional AirportMore FBO Information
 
Add another FBO Facility Photos Catering Weather Repair Courtesy Rental Type 100LL JetA JetA+ MOGAS 8087
Services Transportation Aviation Fuel Prices: Prices include tax


model-print
model-print
model-print
model-print